Hovedside
METAR-TAF:

METAR-TAF

Lufthavner :

Djibouti-Ambouli internasjonale lufthavn

Djibouti, Djibouti

breddegrad: 11-33N, lengdegrad: 043-10E, høyde over havet: 49 m

Gjeldene værobservasjon

Denne rapporten ble laget for 4 timer og 27 minutter siden, klokken 17:00 UTC
Vind 3 kt fra Øst
Temperatur 31°C
Luftfuktighet 79%
Trykk 1006 hPa
Sikt 10 km eller mer
Få skyer i en høyde av 2300 ft

METAR: HDAM 191700Z 10003KT 9999 FEW023 31/27 Q1006

Tid: 00:27 (21:27 UTC)

Varsel

Denne rapporten ble laget for 4 timer og 27 minutter siden, klokken 17:00 UTC
Varsel gyldig fra 19. klokken 18 UTC til 20. klokken 18 UTC
Vind 3 kt fra skiftende retning
Sikt 10 km eller mer
Spredte skyer i en høyde av 2000 ft
Blir
fra 20. klokken 06 UTC til 20. klokken 12 UTC
Vind 10 kt fra Øst
Få skyer i en høyde av 2300 ft
Blir
fra 20. klokken 12 UTC til 20. klokken 15 UTC
Få skyer i en høyde av 3000 ft, Bygeskyer.

TAF: HDAM 191700Z 1918/2018 VRB03KT 9999 SCT020 BECMG 2006/2012 08010KT FEW023 BECMG 2012/2015 FEW030CB

Værobservasjoner og værvarsel for over 4000 flyplasser (METAR- og TAF-rapporter).

Tilgjengelige stasjoner er representert av de røde og gule prikkene på kartet.

Hold musepekeren over prikken for å se navnet på stasjonen.

Klikk så for å se værobservasjoner og -varsler.

For å forandre kartet kan du klikke på den grønne knappen med svart kryss for å zoome inn, på den grønne knappen med strek for å zoome ut, eller på de grønne pilene for å se tilstøtende kart.


METAR-TAF: